Sartell, MN (56377)

6:25 AM CST on January 27, 2015 (GMT -0600)
Bridgeport | Change Station
CLOSE
Current Station
Personal Weather Station
Location: Sartell, MN
Elevation: 1037 ft
Nearby Weather Stations

Elev 1037 ft 45.60 °N, 94.20 °W | Updated 3 seconds ago

Overcast
Overcast
30.0 °F
Feels Like 26 °F
N
4.0
Wind Variable Wind from East
Gusts 6.0 mph

Today
High -- | Low -- °F
--% Chance of Precip.
Yesterday
High -- | Low -- °F
Precip. -- in
7:43 AM 5:15 PM
First Quarter, 53% visible
Pressure 30.15 in
Visibility 10.0 miles
Clouds Overcast 1500 ft
Windchill 26 °F
Dew Point 31 °F
Humidity 100%
Rainfall 0.00 in
Snow Depth Not available.
UV 0 out of 12
Pollen .10 out of 12
Air Quality Not available.
Flu Activity Not available.
METAR KSTC 271153Z AUTO 00000KT 10SM OVC015 M01/M04 A3009 RMK AO2 SLP208 T10061039 10006 21006 53012

More Conditions Fewer Conditions

Pressure 30.15 in
Visibility 10.0 miles
Clouds Overcast 1500 ft
Windchill 26 °F
Dew Point 31 °F
Humidity 100%
Rainfall 0.00 in
Snow Depth Not available.
UV 0 out of 12
Pollen .10 out of 12
Air Quality Not available.
Flu Activity Not available.
METAR KSTC 271153Z AUTO 00000KT 10SM OVC015 M01/M04 A3009 RMK AO2 SLP208 T10061039 10006 21006 53012

More Conditions Fewer Conditions

10-Day Weather Forecast

Almanac

Astronomy

Jan. 27, 2015 Rise Set
Actual Time
Civil Twilight
Nautical Twilight
Astronomical Twilight
Moon
Length of Visible Light
Length of Day
Tomorrow will be .
, % of the Moon is Illuminated

Today's Extremes

State Highs State Lows

Community

WunderPhotos

Upload Photos

1,790,579 photos uploaded!

WunderBlogs® & News

Nearby

Air Quality

  Air Quality AQ Index Pollutant
Not available.

Snow Depth

Station Depth Elevation

Earthquake Activity

City Distance Mag. Time & Date
Minimum magnitude displayed is 2.5.

Coastal Water Temperatures

Place Temperature

Nearby Weather Stations